sensor_id;sensor_type;location;lat;lon;timestamp;temperature;humidity
5868;DHT22;2960;49.142;7.768;2023-04-25T00:00:01;10.90;68.30
5868;DHT22;2960;49.142;7.768;2023-04-25T00:02:32;10.90;67.50
5868;DHT22;2960;49.142;7.768;2023-04-25T00:05:00;10.90;67.60
5868;DHT22;2960;49.142;7.768;2023-04-25T00:07:30;10.90;67.60
5868;DHT22;2960;49.142;7.768;2023-04-25T00:09:58;10.90;67.60
5868;DHT22;2960;49.142;7.768;2023-04-25T00:12:27;10.80;67.50
5868;DHT22;2960;49.142;7.768;2023-04-25T00:14:55;10.90;67.70
5868;DHT22;2960;49.142;7.768;2023-04-25T00:17:23;10.80;67.50
5868;DHT22;2960;49.142;7.768;2023-04-25T00:19:51;10.80;67.60
5868;DHT22;2960;49.142;7.768;2023-04-25T00:22:18;10.80;67.60
5868;DHT22;2960;49.142;7.768;2023-04-25T00:24:46;10.80;67.70
5868;DHT22;2960;49.142;7.768;2023-04-25T00:27:16;10.80;67.80
5868;DHT22;2960;49.142;7.768;2023-04-25T00:29:43;10.80;67.70
5868;DHT22;2960;49.142;7.768;2023-04-25T00:32:10;10.70;67.70
5868;DHT22;2960;49.142;7.768;2023-04-25T00:34:37;10.70;67.70
5868;DHT22;2960;49.142;7.768;2023-04-25T00:37:04;10.70;67.80
5868;DHT22;2960;49.142;7.768;2023-04-25T00:39:31;10.70;68.60
5868;DHT22;2960;49.142;7.768;2023-04-25T00:42:00;10.70;67.80
5868;DHT22;2960;49.142;7.768;2023-04-25T00:44:29;10.70;67.80
5868;DHT22;2960;49.142;7.768;2023-04-25T00:46:57;10.70;67.80
5868;DHT22;2960;49.142;7.768;2023-04-25T00:49:24;10.70;67.80
5868;DHT22;2960;49.142;7.768;2023-04-25T00:51:52;10.70;67.80
5868;DHT22;2960;49.142;7.768;2023-04-25T00:54:19;10.70;67.90
5868;DHT22;2960;49.142;7.768;2023-04-25T00:56:46;10.60;68.70
5868;DHT22;2960;49.142;7.768;2023-04-25T00:59:14;10.60;68.00
5868;DHT22;2960;49.142;7.768;2023-04-25T01:01:42;10.60;68.10
5868;DHT22;2960;49.142;7.768;2023-04-25T01:04:09;10.50;68.10
5868;DHT22;2960;49.142;7.768;2023-04-25T01:06:36;10.50;68.20
5868;DHT22;2960;49.142;7.768;2023-04-25T01:09:04;10.50;68.30
5868;DHT22;2960;49.142;7.768;2023-04-25T01:11:31;10.50;68.30
5868;DHT22;2960;49.142;7.768;2023-04-25T01:13:58;10.50;68.30
5868;DHT22;2960;49.142;7.768;2023-04-25T01:16:27;10.50;68.30
5868;DHT22;2960;49.142;7.768;2023-04-25T01:18:54;10.50;68.30
5868;DHT22;2960;49.142;7.768;2023-04-25T01:21:23;10.50;68.20
5868;DHT22;2960;49.142;7.768;2023-04-25T01:23:53;10.50;69.00
5868;DHT22;2960;49.142;7.768;2023-04-25T01:26:21;10.50;68.30
5868;DHT22;2960;49.142;7.768;2023-04-25T01:28:49;10.50;69.00
5868;DHT22;2960;49.142;7.768;2023-04-25T01:31:17;10.50;68.20
5868;DHT22;2960;49.142;7.768;2023-04-25T01:33:45;10.50;68.30
5868;DHT22;2960;49.142;7.768;2023-04-25T01:36:13;10.50;68.20
5868;DHT22;2960;49.142;7.768;2023-04-25T01:38:42;10.50;68.30
5868;DHT22;2960;49.142;7.768;2023-04-25T01:41:11;10.50;68.20
5868;DHT22;2960;49.142;7.768;2023-04-25T01:43:39;10.50;68.20
5868;DHT22;2960;49.142;7.768;2023-04-25T01:46:06;10.50;68.20
5868;DHT22;2960;49.142;7.768;2023-04-25T01:48:33;10.50;68.20
5868;DHT22;2960;49.142;7.768;2023-04-25T01:51:01;10.50;68.30
5868;DHT22;2960;49.142;7.768;2023-04-25T01:53:28;10.50;68.20
5868;DHT22;2960;49.142;7.768;2023-04-25T01:55:56;10.50;68.20
5868;DHT22;2960;49.142;7.768;2023-04-25T01:58:24;10.50;68.20
5868;DHT22;2960;49.142;7.768;2023-04-25T02:00:51;10.50;68.20
5868;DHT22;2960;49.142;7.768;2023-04-25T02:03:18;10.50;68.20
5868;DHT22;2960;49.142;7.768;2023-04-25T02:05:45;10.40;68.20
5868;DHT22;2960;49.142;7.768;2023-04-25T02:08:12;10.40;68.30
5868;DHT22;2960;49.142;7.768;2023-04-25T02:10:39;10.40;68.40
5868;DHT22;2960;49.142;7.768;2023-04-25T02:13:08;10.30;68.40
5868;DHT22;2960;49.142;7.768;2023-04-25T02:15:35;10.30;68.50
5868;DHT22;2960;49.142;7.768;2023-04-25T02:18:02;10.30;68.50
5868;DHT22;2960;49.142;7.768;2023-04-25T02:20:32;10.30;68.60
5868;DHT22;2960;49.142;7.768;2023-04-25T02:22:59;10.30;68.50
5868;DHT22;2960;49.142;7.768;2023-04-25T02:25:26;10.30;68.50
5868;DHT22;2960;49.142;7.768;2023-04-25T02:27:53;10.30;68.50
5868;DHT22;2960;49.142;7.768;2023-04-25T02:30:22;10.20;68.40
5868;DHT22;2960;49.142;7.768;2023-04-25T02:32:49;10.20;68.40
5868;DHT22;2960;49.142;7.768;2023-04-25T02:35:16;10.20;68.40
5868;DHT22;2960;49.142;7.768;2023-04-25T02:37:44;10.20;68.40
5868;DHT22;2960;49.142;7.768;2023-04-25T02:40:11;10.20;68.30
5868;DHT22;2960;49.142;7.768;2023-04-25T02:42:39;10.20;68.30
5868;DHT22;2960;49.142;7.768;2023-04-25T02:45:07;10.20;68.30
5868;DHT22;2960;49.142;7.768;2023-04-25T02:47:36;10.20;68.40
5868;DHT22;2960;49.142;7.768;2023-04-25T02:50:04;10.10;68.20
5868;DHT22;2960;49.142;7.768;2023-04-25T02:52:32;10.10;69.10
5868;DHT22;2960;49.142;7.768;2023-04-25T02:54:59;10.10;68.40
5868;DHT22;2960;49.142;7.768;2023-04-25T02:57:26;10.00;68.50
5868;DHT22;2960;49.142;7.768;2023-04-25T02:59:53;10.00;68.40
5868;DHT22;2960;49.142;7.768;2023-04-25T03:02:21;10.00;68.40
5868;DHT22;2960;49.142;7.768;2023-04-25T03:04:49;10.00;68.50
5868;DHT22;2960;49.142;7.768;2023-04-25T03:07:16;10.00;68.60
5868;DHT22;2960;49.142;7.768;2023-04-25T03:09:43;9.90;70.40
5868;DHT22;2960;49.142;7.768;2023-04-25T03:12:11;9.90;69.80
5868;DHT22;2960;49.142;7.768;2023-04-25T03:14:38;9.90;69.80
5868;DHT22;2960;49.142;7.768;2023-04-25T03:17:05;9.80;69.70
5868;DHT22;2960;49.142;7.768;2023-04-25T03:19:32;9.80;69.80
5868;DHT22;2960;49.142;7.768;2023-04-25T03:22:01;9.70;69.70
5868;DHT22;2960;49.142;7.768;2023-04-25T03:24:28;9.80;69.80
5868;DHT22;2960;49.142;7.768;2023-04-25T03:26:55;9.80;69.70
5868;DHT22;2960;49.142;7.768;2023-04-25T03:29:22;9.70;69.70
5868;DHT22;2960;49.142;7.768;2023-04-25T03:31:52;9.70;69.70
5868;DHT22;2960;49.142;7.768;2023-04-25T03:34:19;9.70;69.70
5868;DHT22;2960;49.142;7.768;2023-04-25T03:36:47;9.70;69.70
5868;DHT22;2960;49.142;7.768;2023-04-25T03:39:15;9.70;69.70
5868;DHT22;2960;49.142;7.768;2023-04-25T03:41:42;9.60;69.60
5868;DHT22;2960;49.142;7.768;2023-04-25T03:44:09;9.60;69.70
5868;DHT22;2960;49.142;7.768;2023-04-25T03:46:36;9.60;69.70
5868;DHT22;2960;49.142;7.768;2023-04-25T03:49:03;9.60;69.70
5868;DHT22;2960;49.142;7.768;2023-04-25T03:51:30;9.60;69.60
5868;DHT22;2960;49.142;7.768;2023-04-25T03:53:57;9.60;69.60
5868;DHT22;2960;49.142;7.768;2023-04-25T03:56:26;9.60;69.60
5868;DHT22;2960;49.142;7.768;2023-04-25T03:58:53;9.60;70.30
5868;DHT22;2960;49.142;7.768;2023-04-25T04:01:20;9.60;69.50
5868;DHT22;2960;49.142;7.768;2023-04-25T04:03:48;9.60;69.70
5868;DHT22;2960;49.142;7.768;2023-04-25T04:06:15;9.50;69.70
5868;DHT22;2960;49.142;7.768;2023-04-25T04:08:42;9.50;69.90
5868;DHT22;2960;49.142;7.768;2023-04-25T04:11:09;9.50;69.90
5868;DHT22;2960;49.142;7.768;2023-04-25T04:13:37;9.50;69.80
5868;DHT22;2960;49.142;7.768;2023-04-25T04:16:05;9.50;69.80
5868;DHT22;2960;49.142;7.768;2023-04-25T04:18:32;9.50;69.80
5868;DHT22;2960;49.142;7.768;2023-04-25T04:20:59;9.50;69.80
5868;DHT22;2960;49.142;7.768;2023-04-25T04:23:26;9.50;69.90
5868;DHT22;2960;49.142;7.768;2023-04-25T04:25:54;9.50;70.00
5868;DHT22;2960;49.142;7.768;2023-04-25T04:28:21;9.40;70.00
5868;DHT22;2960;49.142;7.768;2023-04-25T04:30:50;9.40;70.00
5868;DHT22;2960;49.142;7.768;2023-04-25T04:33:18;9.30;70.00
5868;DHT22;2960;49.142;7.768;2023-04-25T04:35:46;9.40;70.20
5868;DHT22;2960;49.142;7.768;2023-04-25T04:38:14;9.30;70.20
5868;DHT22;2960;49.142;7.768;2023-04-25T04:40:41;9.30;70.20
5868;DHT22;2960;49.142;7.768;2023-04-25T04:43:09;9.30;70.20
5868;DHT22;2960;49.142;7.768;2023-04-25T04:45:36;9.30;70.20
5868;DHT22;2960;49.142;7.768;2023-04-25T04:48:07;9.30;70.30
5868;DHT22;2960;49.142;7.768;2023-04-25T04:50:37;9.30;70.40
5868;DHT22;2960;49.142;7.768;2023-04-25T04:53:05;9.30;70.40
5868;DHT22;2960;49.142;7.768;2023-04-25T04:55:32;9.30;70.40
5868;DHT22;2960;49.142;7.768;2023-04-25T04:57:59;9.20;70.40
5868;DHT22;2960;49.142;7.768;2023-04-25T05:00:27;9.20;70.50
5868;DHT22;2960;49.142;7.768;2023-04-25T05:02:54;9.20;70.60
5868;DHT22;2960;49.142;7.768;2023-04-25T05:05:23;9.20;70.80
5868;DHT22;2960;49.142;7.768;2023-04-25T05:07:50;9.20;70.80
5868;DHT22;2960;49.142;7.768;2023-04-25T05:10:19;9.20;70.80
5868;DHT22;2960;49.142;7.768;2023-04-25T05:12:46;9.20;70.80
5868;DHT22;2960;49.142;7.768;2023-04-25T05:15:13;9.20;70.80
5868;DHT22;2960;49.142;7.768;2023-04-25T05:17:40;9.20;70.80
5868;DHT22;2960;49.142;7.768;2023-04-25T05:20:08;9.20;71.20
5868;DHT22;2960;49.142;7.768;2023-04-25T05:22:37;9.10;70.80
5868;DHT22;2960;49.142;7.768;2023-04-25T05:25:05;9.10;71.00
5868;DHT22;2960;49.142;7.768;2023-04-25T05:27:32;9.10;71.20
5868;DHT22;2960;49.142;7.768;2023-04-25T05:30:00;9.10;71.30
5868;DHT22;2960;49.142;7.768;2023-04-25T05:32:27;9.10;71.40
5868;DHT22;2960;49.142;7.768;2023-04-25T05:34:54;9.10;71.50
5868;DHT22;2960;49.142;7.768;2023-04-25T05:37:21;9.10;71.50
5868;DHT22;2960;49.142;7.768;2023-04-25T05:39:49;9.20;71.60
5868;DHT22;2960;49.142;7.768;2023-04-25T05:42:17;9.20;71.60
5868;DHT22;2960;49.142;7.768;2023-04-25T05:44:44;9.20;72.50
5868;DHT22;2960;49.142;7.768;2023-04-25T05:47:11;9.20;72.60
5868;DHT22;2960;49.142;7.768;2023-04-25T05:49:38;9.20;71.80
5868;DHT22;2960;49.142;7.768;2023-04-25T05:52:05;9.30;71.90
5868;DHT22;2960;49.142;7.768;2023-04-25T05:54:32;9.30;71.80
5868;DHT22;2960;49.142;7.768;2023-04-25T05:57:01;9.30;71.80
5868;DHT22;2960;49.142;7.768;2023-04-25T05:59:28;9.40;71.80
5868;DHT22;2960;49.142;7.768;2023-04-25T06:01:55;9.40;71.60
5868;DHT22;2960;49.142;7.768;2023-04-25T06:04:23;9.50;71.60
5868;DHT22;2960;49.142;7.768;2023-04-25T06:06:53;9.50;71.60
5868;DHT22;2960;49.142;7.768;2023-04-25T06:09:23;9.50;72.20
5868;DHT22;2960;49.142;7.768;2023-04-25T06:11:50;9.60;71.60
5868;DHT22;2960;49.142;7.768;2023-04-25T06:14:18;9.60;71.60
5868;DHT22;2960;49.142;7.768;2023-04-25T06:16:45;9.70;72.40
5868;DHT22;2960;49.142;7.768;2023-04-25T06:19:13;9.70;71.60
5868;DHT22;2960;49.142;7.768;2023-04-25T06:21:41;9.70;72.40
5868;DHT22;2960;49.142;7.768;2023-04-25T06:24:10;9.70;71.70
5868;DHT22;2960;49.142;7.768;2023-04-25T06:26:37;9.70;71.80
5868;DHT22;2960;49.142;7.768;2023-04-25T06:29:04;9.80;71.90
5868;DHT22;2960;49.142;7.768;2023-04-25T06:31:32;9.70;71.90
5868;DHT22;2960;49.142;7.768;2023-04-25T06:33:59;9.80;71.90
5868;DHT22;2960;49.142;7.768;2023-04-25T06:36:27;9.80;71.90
5868;DHT22;2960;49.142;7.768;2023-04-25T06:38:54;9.80;71.90
5868;DHT22;2960;49.142;7.768;2023-04-25T06:41:21;9.80;71.90
5868;DHT22;2960;49.142;7.768;2023-04-25T06:43:48;9.90;72.00
5868;DHT22;2960;49.142;7.768;2023-04-25T06:46:15;9.90;71.90
5868;DHT22;2960;49.142;7.768;2023-04-25T06:48:43;10.00;70.80
5868;DHT22;2960;49.142;7.768;2023-04-25T06:51:11;10.00;70.80
5868;DHT22;2960;49.142;7.768;2023-04-25T06:53:38;10.00;70.80
5868;DHT22;2960;49.142;7.768;2023-04-25T06:56:06;10.00;70.70
5868;DHT22;2960;49.142;7.768;2023-04-25T06:58:33;10.00;70.70
5868;DHT22;2960;49.142;7.768;2023-04-25T07:01:00;10.00;70.70
5868;DHT22;2960;49.142;7.768;2023-04-25T07:03:27;10.10;70.90
5868;DHT22;2960;49.142;7.768;2023-04-25T07:05:56;10.00;70.80
5868;DHT22;2960;49.142;7.768;2023-04-25T07:08:23;10.00;71.00
5868;DHT22;2960;49.142;7.768;2023-04-25T07:10:50;10.00;71.10
5868;DHT22;2960;49.142;7.768;2023-04-25T07:13:17;10.00;71.20
5868;DHT22;2960;49.142;7.768;2023-04-25T07:15:44;10.00;71.30
5868;DHT22;2960;49.142;7.768;2023-04-25T07:18:13;10.00;71.40
5868;DHT22;2960;49.142;7.768;2023-04-25T07:20:40;10.00;71.50
5868;DHT22;2960;49.142;7.768;2023-04-25T07:23:09;9.90;72.80
5868;DHT22;2960;49.142;7.768;2023-04-25T07:25:36;9.90;72.90
5868;DHT22;2960;49.142;7.768;2023-04-25T07:28:03;10.00;71.90
5868;DHT22;2960;49.142;7.768;2023-04-25T07:30:31;10.00;72.00
5868;DHT22;2960;49.142;7.768;2023-04-25T07:32:59;9.90;73.10
5868;DHT22;2960;49.142;7.768;2023-04-25T07:35:26;9.90;73.20
5868;DHT22;2960;49.142;7.768;2023-04-25T07:37:56;9.90;73.20
5868;DHT22;2960;49.142;7.768;2023-04-25T07:40:26;9.90;73.30
5868;DHT22;2960;49.142;7.768;2023-04-25T07:42:53;9.90;73.30
5868;DHT22;2960;49.142;7.768;2023-04-25T07:45:20;9.90;73.30
5868;DHT22;2960;49.142;7.768;2023-04-25T07:47:47;9.90;73.40
5868;DHT22;2960;49.142;7.768;2023-04-25T07:50:14;10.00;72.30
5868;DHT22;2960;49.142;7.768;2023-04-25T07:52:42;9.90;73.40
5868;DHT22;2960;49.142;7.768;2023-04-25T07:55:09;10.00;72.30
5868;DHT22;2960;49.142;7.768;2023-04-25T07:57:38;10.00;72.20
5868;DHT22;2960;49.142;7.768;2023-04-25T08:00:07;10.00;72.20
5868;DHT22;2960;49.142;7.768;2023-04-25T08:02:37;10.00;72.30
5868;DHT22;2960;49.142;7.768;2023-04-25T08:05:05;10.00;72.30
5868;DHT22;2960;49.142;7.768;2023-04-25T08:07:33;10.00;72.40
5868;DHT22;2960;49.142;7.768;2023-04-25T08:10:01;10.00;72.30
5868;DHT22;2960;49.142;7.768;2023-04-25T08:12:28;10.10;72.40
5868;DHT22;2960;49.142;7.768;2023-04-25T08:14:56;10.10;72.40
5868;DHT22;2960;49.142;7.768;2023-04-25T08:17:24;10.10;72.60
5868;DHT22;2960;49.142;7.768;2023-04-25T08:19:51;10.10;72.60
5868;DHT22;2960;49.142;7.768;2023-04-25T08:22:18;10.20;72.60
5868;DHT22;2960;49.142;7.768;2023-04-25T08:24:45;10.20;72.60
5868;DHT22;2960;49.142;7.768;2023-04-25T08:27:12;10.20;72.50
5868;DHT22;2960;49.142;7.768;2023-04-25T08:29:39;10.20;72.50
5868;DHT22;2960;49.142;7.768;2023-04-25T08:32:07;10.20;72.60
5868;DHT22;2960;49.142;7.768;2023-04-25T08:34:34;10.20;72.60
5868;DHT22;2960;49.142;7.768;2023-04-25T08:37:07;10.30;72.70
5868;DHT22;2960;49.142;7.768;2023-04-25T08:39:35;10.30;72.70
5868;DHT22;2960;49.142;7.768;2023-04-25T08:42:05;10.30;72.70
5868;DHT22;2960;49.142;7.768;2023-04-25T08:44:34;10.30;72.70
5868;DHT22;2960;49.142;7.768;2023-04-25T08:47:03;10.30;72.70
5868;DHT22;2960;49.142;7.768;2023-04-25T08:49:34;10.30;72.60
5868;DHT22;2960;49.142;7.768;2023-04-25T08:52:04;10.30;73.40
5868;DHT22;2960;49.142;7.768;2023-04-25T08:54:32;10.30;72.70
5868;DHT22;2960;49.142;7.768;2023-04-25T08:57:01;10.40;73.50
5868;DHT22;2960;49.142;7.768;2023-04-25T08:59:29;10.40;72.70
5868;DHT22;2960;49.142;7.768;2023-04-25T09:01:57;10.40;72.60
5868;DHT22;2960;49.142;7.768;2023-04-25T09:04:24;10.50;72.80
5868;DHT22;2960;49.142;7.768;2023-04-25T09:06:53;10.50;72.80
5868;DHT22;2960;49.142;7.768;2023-04-25T09:09:20;10.60;73.10
5868;DHT22;2960;49.142;7.768;2023-04-25T09:11:47;10.70;73.00
5868;DHT22;2960;49.142;7.768;2023-04-25T09:14:15;10.80;72.90
5868;DHT22;2960;49.142;7.768;2023-04-25T09:17:00;10.80;72.70
5868;DHT22;2960;49.142;7.768;2023-04-25T09:19:31;10.90;72.70
5868;DHT22;2960;49.142;7.768;2023-04-25T09:22:04;10.90;73.40
5868;DHT22;2960;49.142;7.768;2023-04-25T09:24:33;11.00;72.50
5868;DHT22;2960;49.142;7.768;2023-04-25T09:27:03;11.00;72.40
5868;DHT22;2960;49.142;7.768;2023-04-25T09:29:32;11.00;72.20
5868;DHT22;2960;49.142;7.768;2023-04-25T09:32:15;11.00;72.20
5868;DHT22;2960;49.142;7.768;2023-04-25T09:34:47;11.10;72.30
5868;DHT22;2960;49.142;7.768;2023-04-25T09:37:22;11.10;72.20
5868;DHT22;2960;49.142;7.768;2023-04-25T09:39:53;11.10;72.10
5868;DHT22;2960;49.142;7.768;2023-04-25T09:42:23;11.20;72.10
5868;DHT22;2960;49.142;7.768;2023-04-25T09:44:52;11.20;72.00
5868;DHT22;2960;49.142;7.768;2023-04-25T09:47:20;11.20;71.90
5868;DHT22;2960;49.142;7.768;2023-04-25T09:49:49;11.20;71.90
5868;DHT22;2960;49.142;7.768;2023-04-25T09:52:18;11.20;71.80
5868;DHT22;2960;49.142;7.768;2023-04-25T09:54:48;11.20;71.60
5868;DHT22;2960;49.142;7.768;2023-04-25T09:57:17;11.20;71.60
5868;DHT22;2960;49.142;7.768;2023-04-25T09:59:46;11.30;71.80
5868;DHT22;2960;49.142;7.768;2023-04-25T10:02:15;11.30;71.60
5868;DHT22;2960;49.142;7.768;2023-04-25T10:04:47;11.30;71.30
5868;DHT22;2960;49.142;7.768;2023-04-25T10:07:18;11.30;71.10
5868;DHT22;2960;49.142;7.768;2023-04-25T10:09:49;11.30;71.00
5868;DHT22;2960;49.142;7.768;2023-04-25T10:12:17;11.30;70.80
5868;DHT22;2960;49.142;7.768;2023-04-25T10:14:44;11.40;71.60
5868;DHT22;2960;49.142;7.768;2023-04-25T10:17:12;11.40;70.80
5868;DHT22;2960;49.142;7.768;2023-04-25T10:19:40;11.40;70.80
5868;DHT22;2960;49.142;7.768;2023-04-25T10:22:11;11.40;70.80
5868;DHT22;2960;49.142;7.768;2023-04-25T10:24:43;11.40;70.60
5868;DHT22;2960;49.142;7.768;2023-04-25T10:27:12;11.40;70.50
5868;DHT22;2960;49.142;7.768;2023-04-25T10:29:41;11.30;70.30
5868;DHT22;2960;49.142;7.768;2023-04-25T10:32:09;11.30;70.40
5868;DHT22;2960;49.142;7.768;2023-04-25T10:34:41;11.10;70.50
5868;DHT22;2960;49.142;7.768;2023-04-25T10:37:09;11.10;70.80
5868;DHT22;2960;49.142;7.768;2023-04-25T10:39:39;11.00;70.80
5868;DHT22;2960;49.142;7.768;2023-04-25T10:42:09;11.00;70.80
5868;DHT22;2960;49.142;7.768;2023-04-25T10:44:37;11.00;70.90
5868;DHT22;2960;49.142;7.768;2023-04-25T10:47:07;11.00;71.80
5868;DHT22;2960;49.142;7.768;2023-04-25T10:49:36;11.00;71.00
5868;DHT22;2960;49.142;7.768;2023-04-25T10:52:12;10.90;71.00
5868;DHT22;2960;49.142;7.768;2023-04-25T10:54:41;10.90;71.10
5868;DHT22;2960;49.142;7.768;2023-04-25T10:57:27;10.90;71.20
5868;DHT22;2960;49.142;7.768;2023-04-25T10:59:58;10.90;71.20
5868;DHT22;2960;49.142;7.768;2023-04-25T11:02:27;10.90;71.30
5868;DHT22;2960;49.142;7.768;2023-04-25T11:04:54;11.00;71.40
5868;DHT22;2960;49.142;7.768;2023-04-25T11:07:28;11.10;71.60
5868;DHT22;2960;49.142;7.768;2023-04-25T11:10:03;11.20;71.50
5868;DHT22;2960;49.142;7.768;2023-04-25T11:12:32;11.30;71.40
5868;DHT22;2960;49.142;7.768;2023-04-25T11:15:01;11.30;71.20
5868;DHT22;2960;49.142;7.768;2023-04-25T11:17:29;11.40;71.30
5868;DHT22;2960;49.142;7.768;2023-04-25T11:19:57;11.50;71.30
5868;DHT22;2960;49.142;7.768;2023-04-25T11:22:26;11.60;71.50
5868;DHT22;2960;49.142;7.768;2023-04-25T11:24:53;11.80;71.50
5868;DHT22;2960;49.142;7.768;2023-04-25T11:27:21;11.90;71.40
5868;DHT22;2960;49.142;7.768;2023-04-25T11:29:51;12.10;71.40
5868;DHT22;2960;49.142;7.768;2023-04-25T11:32:19;12.20;71.30
5868;DHT22;2960;49.142;7.768;2023-04-25T11:34:46;12.40;71.10
5868;DHT22;2960;49.142;7.768;2023-04-25T11:37:14;12.40;70.80
5868;DHT22;2960;49.142;7.768;2023-04-25T11:39:45;12.50;70.90
5868;DHT22;2960;49.142;7.768;2023-04-25T11:42:12;12.60;71.20
5868;DHT22;2960;49.142;7.768;2023-04-25T11:44:40;12.70;71.10
5868;DHT22;2960;49.142;7.768;2023-04-25T11:47:08;12.80;71.00
5868;DHT22;2960;49.142;7.768;2023-04-25T11:49:36;12.90;70.80
5868;DHT22;2960;49.142;7.768;2023-04-25T11:52:06;13.00;71.00
5868;DHT22;2960;49.142;7.768;2023-04-25T11:54:35;13.20;71.10
5868;DHT22;2960;49.142;7.768;2023-04-25T11:57:03;13.30;70.80
5868;DHT22;2960;49.142;7.768;2023-04-25T11:59:31;13.40;71.30
5868;DHT22;2960;49.142;7.768;2023-04-25T12:01:58;13.50;70.10
5868;DHT22;2960;49.142;7.768;2023-04-25T12:04:30;13.60;69.80
5868;DHT22;2960;49.142;7.768;2023-04-25T12:06:58;13.60;69.60
5868;DHT22;2960;49.142;7.768;2023-04-25T12:09:31;13.60;69.40
5868;DHT22;2960;49.142;7.768;2023-04-25T12:12:00;13.50;69.20
5868;DHT22;2960;49.142;7.768;2023-04-25T12:14:30;13.50;69.00
5868;DHT22;2960;49.142;7.768;2023-04-25T12:16:59;13.50;68.90
5868;DHT22;2960;49.142;7.768;2023-04-25T12:19:32;13.40;68.80
5868;DHT22;2960;49.142;7.768;2023-04-25T12:22:00;13.40;68.90
5868;DHT22;2960;49.142;7.768;2023-04-25T12:24:28;13.30;68.80
5868;DHT22;2960;49.142;7.768;2023-04-25T12:26:59;13.30;68.90
5868;DHT22;2960;49.142;7.768;2023-04-25T12:29:30;13.30;68.90
5868;DHT22;2960;49.142;7.768;2023-04-25T12:31:59;13.20;68.90
5868;DHT22;2960;49.142;7.768;2023-04-25T12:34:29;13.20;69.00
5868;DHT22;2960;49.142;7.768;2023-04-25T12:36:57;13.30;69.00
5868;DHT22;2960;49.142;7.768;2023-04-25T12:39:25;13.30;68.80
5868;DHT22;2960;49.142;7.768;2023-04-25T12:41:53;13.40;69.70
5868;DHT22;2960;49.142;7.768;2023-04-25T12:44:20;13.50;68.60
5868;DHT22;2960;49.142;7.768;2023-04-25T12:46:48;13.60;68.40
5868;DHT22;2960;49.142;7.768;2023-04-25T12:49:18;13.70;67.80
5868;DHT22;2960;49.142;7.768;2023-04-25T12:51:46;13.70;67.60
5868;DHT22;2960;49.142;7.768;2023-04-25T12:54:13;13.80;67.40
5868;DHT22;2960;49.142;7.768;2023-04-25T12:56:41;13.80;66.80
5868;DHT22;2960;49.142;7.768;2023-04-25T12:59:08;13.90;66.60
5868;DHT22;2960;49.142;7.768;2023-04-25T13:01:37;13.90;67.20
5868;DHT22;2960;49.142;7.768;2023-04-25T13:04:04;13.90;66.40
5868;DHT22;2960;49.142;7.768;2023-04-25T13:06:34;13.90;66.30
5868;DHT22;2960;49.142;7.768;2023-04-25T13:09:03;13.90;66.20
5868;DHT22;2960;49.142;7.768;2023-04-25T13:11:30;14.00;66.20
5868;DHT22;2960;49.142;7.768;2023-04-25T13:13:57;14.00;66.10
5868;DHT22;2960;49.142;7.768;2023-04-25T13:16:24;14.00;66.00
5868;DHT22;2960;49.142;7.768;2023-04-25T13:18:52;14.00;66.70
5868;DHT22;2960;49.142;7.768;2023-04-25T13:21:19;13.90;65.80
5868;DHT22;2960;49.142;7.768;2023-04-25T13:23:46;13.90;65.90
5868;DHT22;2960;49.142;7.768;2023-04-25T13:26:22;13.90;65.90
5868;DHT22;2960;49.142;7.768;2023-04-25T13:28:49;13.90;65.80
5868;DHT22;2960;49.142;7.768;2023-04-25T13:31:16;13.90;65.90
5868;DHT22;2960;49.142;7.768;2023-04-25T13:33:43;13.90;66.00
5868;DHT22;2960;49.142;7.768;2023-04-25T13:36:10;13.90;66.10
5868;DHT22;2960;49.142;7.768;2023-04-25T13:38:40;13.90;66.10
5868;DHT22;2960;49.142;7.768;2023-04-25T13:41:09;13.90;66.20
5868;DHT22;2960;49.142;7.768;2023-04-25T13:43:39;13.80;66.20
5868;DHT22;2960;49.142;7.768;2023-04-25T13:46:06;13.80;66.30
5868;DHT22;2960;49.142;7.768;2023-04-25T13:48:33;13.80;66.50
5868;DHT22;2960;49.142;7.768;2023-04-25T13:51:00;13.70;66.50
5868;DHT22;2960;49.142;7.768;2023-04-25T13:53:27;13.70;66.70
5868;DHT22;2960;49.142;7.768;2023-04-25T13:55:54;13.60;66.80
5868;DHT22;2960;49.142;7.768;2023-04-25T13:58:21;13.50;67.00
5868;DHT22;2960;49.142;7.768;2023-04-25T14:00:50;13.50;67.20
5868;DHT22;2960;49.142;7.768;2023-04-25T14:03:17;13.50;67.50
5868;DHT22;2960;49.142;7.768;2023-04-25T14:05:44;13.50;67.60
5868;DHT22;2960;49.142;7.768;2023-04-25T14:08:11;13.40;67.70
5868;DHT22;2960;49.142;7.768;2023-04-25T14:10:39;13.40;67.80
5868;DHT22;2960;49.142;7.768;2023-04-25T14:13:07;13.40;68.00
5868;DHT22;2960;49.142;7.768;2023-04-25T14:15:34;13.40;68.00
5868;DHT22;2960;49.142;7.768;2023-04-25T14:18:03;13.30;67.70
5868;DHT22;2960;49.142;7.768;2023-04-25T14:20:31;13.30;67.70
5868;DHT22;2960;49.142;7.768;2023-04-25T14:22:58;13.20;67.50
5868;DHT22;2960;49.142;7.768;2023-04-25T14:25:25;13.20;67.50
5868;DHT22;2960;49.142;7.768;2023-04-25T14:27:52;13.10;67.50
5868;DHT22;2960;49.142;7.768;2023-04-25T14:30:20;13.00;67.50
5868;DHT22;2960;49.142;7.768;2023-04-25T14:32:49;12.90;67.60
5868;DHT22;2960;49.142;7.768;2023-04-25T14:35:18;12.90;67.70
5868;DHT22;2960;49.142;7.768;2023-04-25T14:37:46;12.80;67.80
5868;DHT22;2960;49.142;7.768;2023-04-25T14:40:13;12.80;67.90
5868;DHT22;2960;49.142;7.768;2023-04-25T14:42:42;12.80;68.00
5868;DHT22;2960;49.142;7.768;2023-04-25T14:45:10;12.70;67.80
5868;DHT22;2960;49.142;7.768;2023-04-25T14:47:38;12.70;67.70
5868;DHT22;2960;49.142;7.768;2023-04-25T14:50:06;12.70;67.70
5868;DHT22;2960;49.142;7.768;2023-04-25T14:52:36;12.60;67.70
5868;DHT22;2960;49.142;7.768;2023-04-25T14:55:04;12.60;67.80
5868;DHT22;2960;49.142;7.768;2023-04-25T14:57:32;12.60;68.00
5868;DHT22;2960;49.142;7.768;2023-04-25T14:59:59;12.60;68.10
5868;DHT22;2960;49.142;7.768;2023-04-25T15:02:27;12.60;68.10
5868;DHT22;2960;49.142;7.768;2023-04-25T15:04:55;12.70;67.90
5868;DHT22;2960;49.142;7.768;2023-04-25T15:07:25;12.70;67.70
5868;DHT22;2960;49.142;7.768;2023-04-25T15:09:53;12.70;67.40
5868;DHT22;2960;49.142;7.768;2023-04-25T15:12:22;12.70;67.30
5868;DHT22;2960;49.142;7.768;2023-04-25T15:14:51;12.70;67.20
5868;DHT22;2960;49.142;7.768;2023-04-25T15:17:18;12.60;67.20
5868;DHT22;2960;49.142;7.768;2023-04-25T15:19:45;12.60;67.30
5868;DHT22;2960;49.142;7.768;2023-04-25T15:22:12;12.60;67.40
5868;DHT22;2960;49.142;7.768;2023-04-25T15:24:40;12.70;67.50
5868;DHT22;2960;49.142;7.768;2023-04-25T15:27:08;12.70;67.50
5868;DHT22;2960;49.142;7.768;2023-04-25T15:29:36;12.70;67.40
5868;DHT22;2960;49.142;7.768;2023-04-25T15:32:03;12.70;67.40
5868;DHT22;2960;49.142;7.768;2023-04-25T15:34:30;12.70;67.40
5868;DHT22;2960;49.142;7.768;2023-04-25T15:36:57;12.70;67.40
5868;DHT22;2960;49.142;7.768;2023-04-25T15:39:24;12.70;67.40
5868;DHT22;2960;49.142;7.768;2023-04-25T15:41:51;12.70;67.50
5868;DHT22;2960;49.142;7.768;2023-04-25T15:44:21;12.70;67.40
5868;DHT22;2960;49.142;7.768;2023-04-25T15:46:48;12.70;67.40
5868;DHT22;2960;49.142;7.768;2023-04-25T15:49:15;12.70;67.50
5868;DHT22;2960;49.142;7.768;2023-04-25T15:51:44;12.70;67.50
5868;DHT22;2960;49.142;7.768;2023-04-25T15:54:11;12.70;68.20
5868;DHT22;2960;49.142;7.768;2023-04-25T15:56:38;12.70;67.40
5868;DHT22;2960;49.142;7.768;2023-04-25T15:59:05;12.70;67.40
5868;DHT22;2960;49.142;7.768;2023-04-25T16:01:34;12.70;67.40
5868;DHT22;2960;49.142;7.768;2023-04-25T16:04:02;12.70;67.30
5868;DHT22;2960;49.142;7.768;2023-04-25T16:06:29;12.80;67.40
5868;DHT22;2960;49.142;7.768;2023-04-25T16:08:57;12.80;67.30